Minneola, Florida
Current Conditions -  °F | °C
As of 8:53 AM on Monday 26 Jan 2015 (Local Time) from KLEE Reporting Station
Clear Clear  
Wind Chill: 57°   Ceiling: Unl
Heat Index: 57°   Visibility: 10mi
Dew Point: 51°   Wind: 10mph
Humidity: 81%   Direction: 290°WNW
Pressure: 29.9"   Gusts: 22mph
Location:  28.57°N, 81.75°W
Report Text: KLEE 261353Z 29009G19KT 10SM CLR 14/11 A2990 RMK AO2 SLP125 T01390106
Loading
Personal Weather Stations






























Interactive Weather Map New forecast layout! Learn more

10-Day Weather Forecast

Advertisements
Track Severe Weather on mobile